Delta Virtual Airport Information Service

Medina Prince Mohammad bin Abdulaziz Airport

ICAO: OEMA Country: Saudi Arabia
Latitude: 24.5534 Longitude: 39.7051
Latest Arrival : MEA364 (A) (OLBA-OEMA) Latest Departure : SVA273 (OEMA-LTAC)


WX CaptureLIVE
Data provided by noaa.gov | Fetched at 14:38:17

METAR : OEMA 091900Z 27010KT CAVOK 36/15 Q1009 NOSIG

TAF : OEMA 091100Z 0912/1018 27014KT 9999 FEW045 BECMG 0914/0916 32014KT BECMG 0920/0922 VRB03KT


Runway Data for OEMA
Data provided by openaviationdata.com

Runway ID Mag Var Hdg Length Elevation Surface ILS Freq ILS Id ILS Slope
17 2 167° 12657 ft 2076 ft Asphalt 111.7 INAH 3
18 2 181° 10038 ft 2076 ft Asphalt -- -- --
35 2 347° 12657 ft 2076 ft Asphalt 111.3 IDIN 3
36 2 10038 ft 2076 ft Asphalt 110.5 IPMA 3

Medina Prince Mohammad bin Abdulaziz Airport, Saudi Arabia
Use only for reference purposes



Not for navigational purposes.